createdAt,value
2022-10-21T00:01:05.625Z,79.04
2022-10-21T00:03:33.754Z,78.83
2022-10-21T00:06:01.813Z,78.83
2022-10-21T00:08:29.985Z,78.83
2022-10-21T00:11:00.998Z,78.70
2022-10-21T00:13:30.833Z,78.84
2022-10-21T00:16:00.438Z,79.04
2022-10-21T00:18:30.031Z,79.30
2022-10-21T00:20:58.514Z,79.01
2022-10-21T00:23:26.965Z,78.67
2022-10-21T00:25:57.880Z,78.83
2022-10-21T00:28:26.350Z,79.19
2022-10-21T00:30:54.387Z,79.10
2022-10-21T00:33:22.803Z,78.55
2022-10-21T00:35:58.808Z,78.64
2022-10-21T00:38:44.852Z,78.62
2022-10-21T00:41:15.560Z,78.72
2022-10-21T00:43:58.437Z,78.88
2022-10-21T00:46:36.462Z,79.03
2022-10-21T00:49:08.708Z,78.93
2022-10-21T00:51:38.594Z,79.27
2022-10-21T00:54:07.632Z,78.66
2022-10-21T00:56:37.173Z,78.86
2022-10-21T00:59:06.412Z,78.52
2022-10-21T01:01:34.911Z,79.04
2022-10-21T01:04:03.900Z,78.59
2022-10-21T01:06:33.260Z,78.59
2022-10-21T01:09:03.752Z,78.96
2022-10-21T01:11:37.153Z,78.94
2022-10-21T01:14:19.325Z,78.90
2022-10-21T01:16:54.337Z,78.74
2022-10-21T01:19:45.021Z,78.64
2022-10-21T01:22:30.820Z,78.93
2022-10-21T01:25:17.032Z,78.78
2022-10-21T01:27:54.192Z,79.31
2022-10-21T01:30:39.752Z,78.80
2022-10-21T01:33:20.185Z,78.85
2022-10-21T01:35:53.965Z,78.97
2022-10-21T01:38:28.810Z,79.02
2022-10-21T01:41:02.983Z,79.48
2022-10-21T01:43:38.691Z,79.21
2022-10-21T01:46:17.064Z,79.45
2022-10-21T01:48:49.587Z,79.63
2022-10-21T01:51:20.211Z,78.94
2022-10-21T01:53:53.799Z,79.50
2022-10-21T01:56:23.190Z,79.82
2022-10-21T01:58:54.103Z,80.09
2022-10-21T02:01:25.347Z,79.91
2022-10-21T02:03:58.248Z,79.62
2022-10-21T02:06:26.282Z,79.84
2022-10-21T02:08:54.326Z,79.18
2022-10-21T02:11:23.022Z,79.90
2022-10-21T02:13:57.314Z,79.88
2022-10-21T02:16:30.794Z,79.65
2022-10-21T02:19:01.371Z,79.68
2022-10-21T02:21:32.119Z,79.28
2022-10-21T02:24:06.335Z,79.55
2022-10-21T02:26:34.564Z,79.29
2022-10-21T02:29:02.851Z,79.24
2022-10-21T02:31:47.142Z,79.79
2022-10-21T02:34:27.413Z,79.40
2022-10-21T02:37:01.263Z,79.19
2022-10-21T02:39:35.385Z,79.67
2022-10-21T02:42:05.602Z,79.36
2022-10-21T02:44:34.943Z,78.94
2022-10-21T02:47:05.658Z,78.91
2022-10-21T02:49:33.861Z,79.12
2022-10-21T02:52:02.102Z,79.29
2022-10-21T02:54:30.326Z,79.12
2022-10-21T02:56:58.438Z,79.56
2022-10-21T02:59:26.711Z,78.89
2022-10-21T03:01:54.790Z,78.86
2022-10-21T03:07:15.072Z,79.44
2022-10-21T03:09:43.244Z,78.88
2022-10-21T03:12:11.364Z,78.91
2022-10-21T03:14:39.590Z,79.37
2022-10-21T03:17:07.913Z,79.99
2022-10-21T03:19:38.335Z,79.58
2022-10-21T03:22:07.296Z,79.45
2022-10-21T03:24:35.840Z,79.60
2022-10-21T03:27:05.954Z,79.65
2022-10-21T03:29:34.566Z,79.70
2022-10-21T03:32:02.983Z,79.86
2022-10-21T03:34:31.270Z,79.38
2022-10-21T03:37:01.417Z,79.58
2022-10-21T03:39:31.938Z,79.14
2022-10-21T03:42:00.346Z,79.52
2022-10-21T03:44:28.798Z,79.19
2022-10-21T03:46:57.299Z,79.70
2022-10-21T03:49:25.253Z,79.91
2022-10-21T03:51:53.161Z,79.74
2022-10-21T03:54:22.405Z,79.89
2022-10-21T03:56:50.734Z,79.73
2022-10-21T03:59:19.071Z,79.38
2022-10-21T04:01:49.604Z,79.40
2022-10-21T04:04:18.551Z,79.75
2022-10-21T04:06:47.009Z,79.43
2022-10-21T04:09:15.232Z,79.69
2022-10-21T04:11:45.113Z,79.07
2022-10-21T04:14:15.409Z,79.31
2022-10-21T04:16:43.973Z,79.42
2022-10-21T04:19:17.903Z,79.09
2022-10-21T04:21:45.874Z,79.14
2022-10-21T04:24:14.229Z,78.96
2022-10-21T04:26:43.130Z,78.96
2022-10-21T04:29:13.452Z,79.17
2022-10-21T04:31:41.894Z,78.93
2022-10-21T04:34:12.003Z,78.95
2022-10-21T04:36:41.089Z,78.30
2022-10-21T04:39:09.306Z,78.32
2022-10-21T04:41:38.111Z,78.33
2022-10-21T04:44:07.419Z,78.22
2022-10-21T04:46:36.829Z,78.21
2022-10-21T04:49:04.904Z,78.30
2022-10-21T04:51:33.153Z,77.96
2022-10-21T04:54:01.190Z,78.06
2022-10-21T04:56:29.233Z,77.69
2022-10-21T04:58:57.259Z,77.95
2022-10-21T05:01:26.079Z,77.61
2022-10-21T05:03:55.824Z,77.35
2022-10-21T05:06:24.080Z,77.67
2022-10-21T05:08:52.102Z,78.19
2022-10-21T05:11:20.216Z,77.77
2022-10-21T05:13:48.191Z,77.94
2022-10-21T05:16:16.739Z,77.58
2022-10-21T05:18:45.289Z,77.33
2022-10-21T05:21:14.584Z,77.45
2022-10-21T05:23:43.369Z,77.35
2022-10-21T05:26:11.538Z,77.60
2022-10-21T05:28:39.405Z,76.99
2022-10-21T05:31:07.372Z,77.43
2022-10-21T05:33:35.195Z,76.67
2022-10-21T05:36:07.710Z,77.05
2022-10-21T05:38:37.182Z,76.69
2022-10-21T05:41:05.159Z,77.21
2022-10-21T05:43:33.175Z,76.41
2022-10-21T05:46:01.420Z,76.69
2022-10-21T05:48:29.752Z,76.64
2022-10-21T05:50:58.089Z,76.81
2022-10-21T05:53:26.714Z,76.66
2022-10-21T05:56:01.132Z,76.61
2022-10-21T05:58:30.698Z,77.06
2022-10-21T06:00:59.893Z,76.71
2022-10-21T06:03:30.474Z,76.80
2022-10-21T06:05:58.580Z,77.11
2022-10-21T06:08:27.128Z,76.78
2022-10-21T06:11:02.815Z,76.90
2022-10-21T06:13:30.882Z,77.38
2022-10-21T06:15:59.631Z,77.09
2022-10-21T06:18:28.380Z,77.37
2022-10-21T06:20:57.005Z,77.31
2022-10-21T06:23:25.374Z,77.44
2022-10-21T06:25:57.806Z,77.29
2022-10-21T06:28:28.182Z,77.15
2022-10-21T06:30:56.225Z,77.14
2022-10-21T06:33:27.015Z,76.92
2022-10-21T06:35:55.498Z,77.04
2022-10-21T06:38:23.472Z,76.99
2022-10-21T06:40:51.493Z,77.13
2022-10-21T06:43:20.186Z,77.27
2022-10-21T06:45:49.437Z,76.90
2022-10-21T06:48:17.326Z,76.92
2022-10-21T06:50:45.384Z,77.19
2022-10-21T06:53:13.355Z,77.23
2022-10-21T06:55:41.436Z,77.32
2022-10-21T06:58:09.555Z,77.25
2022-10-21T07:00:38.710Z,77.28
2022-10-21T07:03:07.995Z,77.13
2022-10-21T07:05:36.124Z,77.48
2022-10-21T07:08:04.425Z,76.90
2022-10-21T07:10:32.556Z,77.10
2022-10-21T07:13:03.489Z,77.01
2022-10-21T07:15:31.513Z,77.11
2022-10-21T07:18:01.095Z,77.05
2022-10-21T07:20:30.496Z,76.91
2022-10-21T07:22:58.535Z,76.62
2022-10-21T07:25:26.700Z,76.76
2022-10-21T07:27:55.047Z,76.62
2022-10-21T07:30:23.608Z,76.87
2022-10-21T07:32:52.105Z,76.90
2022-10-21T07:35:20.282Z,76.43
2022-10-21T07:37:49.798Z,76.67
2022-10-21T07:40:17.900Z,76.33
2022-10-21T07:42:45.845Z,76.78
2022-10-21T07:45:13.866Z,76.47
2022-10-21T07:47:42.017Z,76.33
2022-10-21T07:50:11.050Z,76.41
2022-10-21T07:52:51.879Z,76.58
2022-10-21T07:55:33.543Z,76.63
2022-10-21T07:58:01.694Z,76.42
2022-10-21T08:00:29.689Z,76.31
2022-10-21T08:02:59.122Z,76.59
2022-10-21T08:05:27.436Z,76.15
2022-10-21T08:07:55.382Z,76.36
2022-10-21T08:10:23.871Z,76.56
2022-10-21T08:12:53.393Z,76.46
2022-10-21T08:15:21.416Z,76.11
2022-10-21T08:17:49.362Z,75.94
2022-10-21T08:20:17.405Z,76.34
2022-10-21T08:22:45.525Z,76.27
2022-10-21T08:25:16.727Z,76.24
2022-10-21T08:27:44.834Z,76.10
2022-10-21T08:30:15.603Z,76.18
2022-10-21T08:32:44.246Z,76.09
2022-10-21T08:35:12.113Z,76.61
2022-10-21T08:37:40.393Z,76.27
2022-10-21T08:40:13.596Z,76.43
2022-10-21T08:42:44.268Z,76.28
2022-10-21T08:45:24.563Z,76.44
2022-10-21T08:47:56.685Z,76.39
2022-10-21T08:50:29.569Z,76.74
2022-10-21T08:53:02.081Z,76.59
2022-10-21T08:55:34.714Z,76.47
2022-10-21T08:58:04.041Z,76.39
2022-10-21T09:00:38.527Z,76.78
2022-10-21T09:03:17.614Z,76.36
2022-10-21T09:06:16.537Z,76.44
2022-10-21T09:08:57.559Z,76.35
2022-10-21T09:11:36.472Z,76.53
2022-10-21T09:17:07.913Z,76.59
2022-10-21T09:19:46.696Z,76.46
2022-10-21T09:22:36.003Z,76.40
2022-10-21T09:25:18.672Z,76.56
2022-10-21T09:28:02.599Z,76.62
2022-10-21T09:30:30.744Z,76.80
2022-10-21T09:33:01.118Z,76.43
2022-10-21T09:35:35.968Z,76.54
2022-10-21T09:38:11.638Z,76.51
2022-10-21T09:40:39.805Z,76.45
2022-10-21T09:43:17.627Z,76.48
2022-10-21T09:45:47.569Z,76.75
2022-10-21T09:48:29.643Z,76.66
2022-10-21T09:51:02.721Z,77.02
2022-10-21T09:53:35.557Z,76.68
2022-10-21T09:56:07.577Z,76.94
2022-10-21T09:58:46.829Z,76.61
2022-10-21T10:01:20.846Z,77.32
2022-10-21T10:03:51.966Z,77.17
2022-10-21T10:06:34.884Z,77.88
2022-10-21T10:09:28.121Z,77.71
2022-10-21T10:11:58.468Z,77.43
2022-10-21T10:14:32.819Z,77.86
2022-10-21T10:17:38.487Z,77.13
2022-10-21T10:20:25.861Z,76.77
2022-10-21T10:23:10.488Z,76.75
2022-10-21T10:25:40.347Z,76.81
2022-10-21T10:28:21.480Z,77.02
2022-10-21T10:30:53.454Z,76.81
2022-10-21T10:33:24.845Z,76.31
2022-10-21T10:35:55.925Z,76.52
2022-10-21T10:38:29.710Z,76.74
2022-10-21T10:41:06.314Z,76.58
2022-10-21T10:43:36.055Z,76.19
2022-10-21T10:46:08.459Z,76.30
2022-10-21T10:48:41.865Z,76.32
2022-10-21T10:51:26.093Z,76.46
2022-10-21T10:54:02.742Z,76.67
2022-10-21T10:56:35.350Z,76.15
2022-10-21T10:59:13.439Z,75.89
2022-10-21T11:01:48.242Z,76.54
2022-10-21T11:04:23.856Z,76.02
2022-10-21T11:06:58.678Z,75.42
2022-10-21T11:09:27.638Z,75.95
2022-10-21T11:11:56.392Z,75.68
2022-10-21T11:14:24.534Z,75.95
2022-10-21T11:17:02.118Z,74.84
2022-10-21T11:19:38.551Z,74.63
2022-10-21T11:22:15.036Z,74.39
2022-10-21T11:24:55.420Z,74.03
2022-10-21T11:27:34.210Z,73.60
2022-10-21T11:30:11.010Z,73.13
2022-10-21T11:32:56.598Z,72.49
2022-10-21T11:35:35.308Z,71.92
2022-10-21T11:38:20.278Z,70.75
2022-10-21T11:40:50.693Z,68.73
2022-10-21T11:43:28.929Z,69.10
2022-10-21T11:46:05.311Z,69.49
2022-10-21T11:48:50.685Z,67.80
2022-10-21T11:51:30.617Z,68.13
2022-10-21T11:54:15.266Z,67.70
2022-10-21T11:56:52.965Z,68.09
2022-10-21T11:59:38.689Z,69.21
2022-10-21T12:02:17.358Z,69.64
2022-10-21T12:04:56.722Z,70.26
2022-10-21T12:07:36.114Z,70.18
2022-10-21T12:10:13.539Z,69.18
2022-10-21T12:12:47.560Z,68.57
2022-10-21T12:15:21.234Z,66.60
2022-10-21T12:17:50.442Z,64.49
2022-10-21T12:20:23.895Z,62.51
2022-10-21T12:22:58.535Z,62.50
2022-10-21T12:25:39.107Z,60.99
2022-10-21T12:28:14.867Z,60.92
2022-10-21T12:30:55.969Z,62.11
2022-10-21T12:33:37.774Z,63.14
2022-10-21T12:36:39.776Z,62.33
2022-10-21T12:39:13.286Z,60.19
2022-10-21T12:41:44.618Z,62.33
2022-10-21T12:44:23.220Z,62.61
2022-10-21T12:46:53.590Z,62.64
2022-10-21T12:49:30.455Z,63.41
2022-10-21T12:52:07.266Z,63.35
2022-10-21T12:54:44.140Z,62.92
2022-10-21T12:57:26.136Z,63.86
2022-10-21T13:00:15.512Z,62.43
2022-10-21T13:03:02.603Z,61.74
2022-10-21T13:06:02.227Z,62.61
2022-10-21T13:08:39.661Z,62.83
2022-10-21T13:11:22.764Z,63.20
2022-10-21T13:14:33.637Z,63.93
2022-10-21T13:17:28.903Z,63.97
2022-10-21T13:19:58.472Z,62.91
2022-10-21T13:22:36.364Z,62.50
2022-10-21T13:25:18.410Z,62.40
2022-10-21T13:27:49.678Z,62.47
2022-10-21T13:30:30.675Z,60.95
2022-10-21T13:33:03.006Z,62.69
2022-10-21T13:35:34.149Z,62.52
2022-10-21T13:38:18.562Z,64.29
2022-10-21T13:40:49.533Z,62.41
2022-10-21T13:43:24.499Z,61.05
2022-10-21T13:46:04.427Z,61.41
2022-10-21T13:48:32.883Z,59.47
2022-10-21T13:51:11.986Z,61.71
2022-10-21T13:53:45.629Z,62.11
2022-10-21T13:56:21.910Z,61.63
2022-10-21T13:58:50.567Z,63.21
2022-10-21T14:01:22.227Z,62.90
2022-10-21T14:03:51.170Z,62.77
2022-10-21T14:06:30.336Z,62.89
2022-10-21T14:08:59.341Z,63.11
2022-10-21T14:11:34.782Z,63.61
2022-10-21T14:14:09.579Z,63.08
2022-10-21T14:16:41.412Z,63.82
2022-10-21T14:19:12.435Z,63.85
2022-10-21T14:21:45.310Z,62.88
2022-10-21T14:24:27.941Z,63.83
2022-10-21T14:26:57.030Z,63.61
2022-10-21T14:29:27.963Z,63.32
2022-10-21T14:31:58.046Z,63.93
2022-10-21T14:34:27.132Z,64.83
2022-10-21T14:37:06.752Z,65.30
2022-10-21T14:39:38.625Z,65.00
2022-10-21T14:42:12.791Z,64.54
2022-10-21T14:44:43.870Z,65.45
2022-10-21T14:47:19.089Z,65.04
2022-10-21T14:49:49.572Z,64.30
2022-10-21T14:52:21.612Z,64.81
2022-10-21T14:54:54.551Z,65.81
2022-10-21T14:57:32.908Z,65.81
2022-10-21T15:00:03.331Z,65.87
2022-10-21T15:02:36.755Z,65.49
2022-10-21T15:05:06.651Z,65.16
2022-10-21T15:07:37.286Z,65.69
2022-10-21T15:10:18.698Z,66.33
2022-10-21T15:12:50.310Z,66.65
2022-10-21T15:15:44.504Z,66.91
2022-10-21T15:18:19.541Z,66.42
2022-10-21T15:20:53.491Z,66.63
2022-10-21T15:23:26.626Z,67.13
2022-10-21T15:26:00.395Z,66.77
2022-10-21T15:28:31.713Z,67.41
2022-10-21T15:31:00.612Z,67.65
2022-10-21T15:33:31.356Z,67.42
2022-10-21T15:36:06.002Z,68.12
2022-10-21T15:38:34.003Z,67.50
2022-10-21T15:41:02.152Z,68.03
2022-10-21T15:43:30.155Z,68.31
2022-10-21T15:46:00.692Z,68.61
2022-10-21T15:48:29.925Z,69.17
2022-10-21T15:50:58.237Z,68.67
2022-10-21T15:53:26.306Z,69.44
2022-10-21T15:55:55.091Z,69.86
2022-10-21T15:58:23.069Z,69.52
2022-10-21T16:00:50.971Z,70.71
2022-10-21T16:03:19.010Z,70.86
2022-10-21T16:05:48.366Z,70.46
2022-10-21T16:08:16.396Z,70.76
2022-10-21T16:10:47.721Z,70.97
2022-10-21T16:13:16.091Z,71.37
2022-10-21T16:15:44.509Z,71.74
2022-10-21T16:18:14.105Z,71.50
2022-10-21T16:20:43.650Z,71.99
2022-10-21T16:23:12.983Z,72.02
2022-10-21T16:25:40.822Z,72.81
2022-10-21T16:28:08.882Z,72.64
2022-10-21T16:30:39.160Z,72.64
2022-10-21T16:33:07.309Z,73.08
2022-10-21T16:35:36.679Z,73.39
2022-10-21T16:38:04.491Z,73.01
2022-10-21T16:40:35.863Z,73.66
2022-10-21T16:43:03.761Z,73.67
2022-10-21T16:45:33.517Z,73.64
2022-10-21T16:48:04.093Z,73.37
2022-10-21T16:50:39.259Z,74.48
2022-10-21T16:53:07.359Z,74.39
2022-10-21T16:55:37.161Z,74.64
2022-10-21T16:58:05.426Z,75.16
2022-10-21T17:00:33.452Z,74.72
2022-10-21T17:03:01.754Z,74.79
2022-10-21T17:05:29.819Z,74.58
2022-10-21T17:07:58.586Z,74.74
2022-10-21T17:10:26.483Z,74.99
2022-10-21T17:12:58.826Z,75.16
2022-10-21T17:15:28.090Z,74.91
2022-10-21T17:17:56.061Z,75.44
2022-10-21T17:20:23.940Z,75.43
2022-10-21T17:22:51.790Z,75.49
2022-10-21T17:25:19.746Z,75.38
2022-10-21T17:27:47.584Z,74.69
2022-10-21T17:30:17.025Z,75.18
2022-10-21T17:32:45.877Z,75.23
2022-10-21T17:35:18.571Z,75.40
2022-10-21T17:37:47.097Z,75.80
2022-10-21T17:40:17.739Z,75.00
2022-10-21T17:42:46.147Z,75.19
2022-10-21T17:45:16.796Z,75.06
2022-10-21T17:47:45.337Z,75.38
2022-10-21T17:50:14.094Z,75.51
2022-10-21T17:52:43.961Z,75.80
2022-10-21T17:55:13.231Z,75.92
2022-10-21T17:57:41.121Z,75.58
2022-10-21T18:00:10.051Z,76.18
2022-10-21T18:02:39.584Z,75.97
2022-10-21T18:05:09.597Z,75.53
2022-10-21T18:07:38.169Z,75.57
2022-10-21T18:10:07.698Z,75.41
2022-10-21T18:12:36.080Z,75.36
2022-10-21T18:15:04.769Z,75.04
2022-10-21T18:17:34.207Z,75.38
2022-10-21T18:20:03.957Z,75.32
2022-10-21T18:22:31.838Z,75.53
2022-10-21T18:24:59.733Z,75.70
2022-10-21T18:27:27.669Z,75.49
2022-10-21T18:29:55.623Z,75.89
2022-10-21T18:32:23.502Z,76.37
2022-10-21T18:34:51.715Z,76.00
2022-10-21T18:37:21.010Z,75.91
2022-10-21T18:39:48.955Z,75.77
2022-10-21T18:42:17.156Z,76.28
2022-10-21T18:44:45.209Z,76.45
2022-10-21T18:47:13.143Z,76.30
2022-10-21T18:49:40.898Z,76.22
2022-10-21T18:52:08.699Z,76.29
2022-10-21T18:54:37.918Z,76.32
2022-10-21T18:57:09.778Z,76.23
2022-10-21T18:59:38.017Z,76.48
2022-10-21T19:02:05.864Z,76.45
2022-10-21T19:04:34.101Z,76.50
2022-10-21T19:07:02.025Z,76.63
2022-10-21T19:09:29.928Z,76.38
2022-10-21T19:12:02.773Z,76.27
2022-10-21T19:14:32.328Z,76.43
2022-10-21T19:17:01.383Z,76.46
2022-10-21T19:19:29.599Z,76.76
2022-10-21T19:21:57.769Z,76.14
2022-10-21T19:24:25.810Z,76.32
2022-10-21T19:27:01.927Z,76.04
2022-10-21T19:29:37.318Z,76.08
2022-10-21T19:32:37.370Z,75.79
2022-10-21T19:38:20.708Z,75.73
2022-10-21T19:41:11.928Z,76.56
2022-10-21T19:43:40.181Z,76.04
2022-10-21T19:46:09.559Z,76.15
2022-10-21T19:48:37.761Z,76.56
2022-10-21T19:51:06.059Z,76.41
2022-10-21T19:53:34.919Z,76.37
2022-10-21T19:56:03.789Z,76.13
2022-10-21T19:58:32.782Z,76.19
2022-10-21T20:01:05.686Z,76.39
2022-10-21T20:03:34.854Z,76.66
2022-10-21T20:06:05.765Z,75.95
2022-10-21T20:08:34.358Z,76.30
2022-10-21T20:11:04.317Z,76.88
2022-10-21T20:13:32.074Z,76.01
2022-10-21T20:16:00.211Z,75.92
2022-10-21T20:18:29.378Z,76.59
2022-10-21T20:20:58.962Z,76.11
2022-10-21T20:23:27.525Z,76.45
2022-10-21T20:25:57.641Z,76.20
2022-10-21T20:28:27.367Z,75.95
2022-10-21T20:30:59.756Z,76.64
2022-10-21T20:33:28.172Z,76.62
2022-10-21T20:35:55.920Z,76.33
2022-10-21T20:38:25.413Z,76.07
2022-10-21T20:40:54.325Z,76.64
2022-10-21T20:43:22.171Z,76.28
2022-10-21T20:45:50.105Z,77.00
2022-10-21T20:48:17.814Z,77.01
2022-10-21T20:50:45.578Z,76.35
2022-10-21T20:53:13.536Z,76.74
2022-10-21T20:55:43.945Z,76.77
2022-10-21T20:58:11.736Z,76.40
2022-10-21T21:00:42.406Z,76.29
2022-10-21T21:03:12.938Z,76.97
2022-10-21T21:05:40.955Z,76.48
2022-10-21T21:08:09.346Z,77.07
2022-10-21T21:10:37.360Z,76.54
2022-10-21T21:13:06.550Z,76.61
2022-10-21T21:15:34.441Z,76.42
2022-10-21T21:18:07.832Z,76.95
2022-10-21T21:20:35.769Z,76.55
2022-10-21T21:23:03.729Z,76.66
2022-10-21T21:25:31.513Z,76.54
2022-10-21T21:27:59.446Z,77.20
2022-10-21T21:30:28.782Z,77.10
2022-10-21T21:32:56.662Z,76.90
2022-10-21T21:35:24.806Z,77.11
2022-10-21T21:37:53.036Z,76.67
2022-10-21T21:40:21.004Z,76.78
2022-10-21T21:42:48.790Z,76.97
2022-10-21T21:45:16.563Z,76.65
2022-10-21T21:47:45.751Z,77.03
2022-10-21T21:50:14.239Z,76.52
2022-10-21T21:52:42.930Z,76.76
2022-10-21T21:55:11.335Z,77.00
2022-10-21T21:57:39.212Z,76.75
2022-10-21T22:00:08.518Z,76.76
2022-10-21T22:02:37.326Z,77.14
2022-10-21T22:05:07.924Z,76.90
2022-10-21T22:07:36.095Z,77.08
2022-10-21T22:10:03.859Z,76.65
2022-10-21T22:12:31.612Z,76.74
2022-10-21T22:14:59.323Z,77.04
2022-10-21T22:17:29.732Z,76.89
2022-10-21T22:19:58.554Z,76.64
2022-10-21T22:22:36.153Z,76.79
2022-10-21T22:25:07.187Z,76.86
2022-10-21T22:33:45.287Z,76.72
2022-10-21T22:36:13.364Z,76.71
2022-10-21T22:38:42.938Z,77.02
2022-10-21T22:41:12.710Z,76.69
2022-10-21T22:43:52.746Z,76.59
2022-10-21T22:46:58.569Z,76.64
2022-10-21T22:49:26.977Z,76.59
2022-10-21T22:51:55.037Z,76.60
2022-10-21T22:54:47.870Z,76.69
2022-10-21T22:57:12.927Z,76.68
2022-10-21T22:59:43.758Z,76.94
2022-10-21T23:02:12.447Z,76.84
2022-10-21T23:04:40.650Z,76.69
2022-10-21T23:07:08.947Z,77.17
2022-10-21T23:09:38.794Z,77.01
2022-10-21T23:12:07.242Z,76.87
2022-10-21T23:14:35.350Z,77.21
2022-10-21T23:17:03.325Z,76.48
2022-10-21T23:19:31.941Z,76.90
2022-10-21T23:22:00.116Z,77.13
2022-10-21T23:24:28.255Z,76.91
2022-10-21T23:27:00.570Z,77.24
2022-10-21T23:29:29.950Z,77.14
2022-10-21T23:31:57.917Z,77.28
2022-10-21T23:34:25.758Z,77.28
2022-10-21T23:36:53.649Z,77.16
2022-10-21T23:39:21.999Z,77.05
2022-10-21T23:41:50.354Z,77.08
2022-10-21T23:44:19.751Z,77.28
2022-10-21T23:46:47.949Z,77.07
2022-10-21T23:49:16.032Z,76.61
2022-10-21T23:51:44.110Z,77.09
2022-10-21T23:54:12.798Z,77.30
2022-10-21T23:56:40.684Z,77.09
2022-10-21T23:59:08.518Z,77.12
